Kitscoty, Canada
Current Conditions -  °F | °C
As of 4:00 AM on Wednesday 22 Oct 2014 (Local Time) from CYLL Reporting Station
Broken Clouds Broken Clouds  
Wind Chill: 36°   Ceiling: 19000
Heat Index: 41°   Visibility: 9mi
Dew Point: 34°   Wind: 7mph
Humidity: 76%   Direction: 310°NW
Pressure: 29.71"   Gusts: NA
Location:  53.34°N, 110.33°W
Report Text: CYLL 221000Z AUTO 31006KT 9SM BKN190 05/01 A2971 RMK SLP078
Loading
Personal Weather Stations






























Interactive Weather Map
Tropical Storm Tracking
New forecast layout! Learn more

10-Day Weather Forecast

Advertisements
Track Severe Weather on mobile